Flight Information

DEPARTURE
BOZEMAN, MT
Elevation:
4473
Runways:
3/21 - 2650x75 - ASPH-G
11G/29G - 2802x80 - TURF-G
11/29 - 5050x75 - ASPH-G
12/30 - 8994x150 - ASPH-G
Tower:
118.2
DESTINATION
,
Elevation:
TPA:
1000 (est.)


6274.3 NM75° True-16° Var58° HDG

Flight Plan:
(click to file on line)

1. Type
2. Aircraft Identification
3. Aircraft Type / Special Equipment
4. True Airspeed
kts
5. Departure Airport
(ICAO code)
6. Arriving Airport
(ICAO code)
7. Cruising Altitude
ft
8. Alternate Airport
(ICAO code)
9. Route of Flight
10. Remarks


00:00:00 Departure ATIS: Destination ATIS:

Clearance Limit:
Route:
Altitude: Expect in minutes
Frequency:
Transponder: (7500 Hijack / 7600 Lost Comms / 7700 Emergency)


KBZN 282256Z 13003KT 10SM CLR M05/M12 A3037 RMK AO2 SLP357 T10501122
Time: 2022-01-28T22:56:00Z
1643412564
Winds: 130 @ 3 kts
Visibility: 10.0 sm
Clouds (AGL): CLR
Temperature: -5.0 C
Dew Point: -12.2 C
Pressure: 30.369095 in Hgbr


Notes:

Data extracted from FAA Digital Chart Supplement. Effective: 0901Z Thursday, DEC 2, 2021 to 0901Z Thursday, JAN 27, 2022
Current ATIS data is provided courtisy of PilotEdge.